Time;durP1;ratioP1;P1;durP2;ratioP2;P2;SDS_P1;SDS_P2;PMS_P1;PMS_P2;Temp;Humidity;BMP_temperature;BMP_pressure;BME280_temperature;BME280_humidity;BME280_pressure;Samples;Min_cycle;Max_cycle;Signal;HPM_P1;HPM_P2
2021/11/25 00:00:40;;;;;;;;;;;;;;;;;;5015408;28;19948;-81
2021/11/25 00:03:06;;;;;;;;;;;;;;;;;;5015096;28;19920;-81
2021/11/25 00:05:32;;;;;;;;;;;;;;;;;;5006697;28;20422;-82
2021/11/25 00:07:58;;;;;;;;;;;;;;;;;;5008462;28;20181;-81
2021/11/25 00:10:23;;;;;;;;;;;;;;;;;;5018406;28;19921;-81
2021/11/25 00:12:52;;;;;;;;;;;;;;;;;;5005897;28;19914;-81
2021/11/25 00:15:18;;;;;;;;;;;;;;;;;;5004487;28;19914;-81
2021/11/25 00:17:44;;;;;;;;;;;;;;;;;;5009015;28;19928;-81
2021/11/25 00:20:10;;;;;;;;;;;;;;;;;;5025934;28;19986;-81
2021/11/25 00:22:36;;;;;;;;;;;;;;;;;;5022637;28;19982;-81
2021/11/25 00:25:02;;;;;;;;;;;;;;;;;;5019035;28;19917;-82
2021/11/25 00:27:27;;;;;;;;;;;;;;;;;;5016622;28;19936;-81
2021/11/25 00:29:53;;;;;;;;;;;;;;;;;;5026104;28;19960;-82
2021/11/25 00:32:19;;;;;;;;;;;;;;;;;;5011725;28;19920;-81
2021/11/25 00:34:45;;;;;;;;;;;;;;;;;;5007090;28;19920;-82
2021/11/25 00:37:11;;;;;;;;;;;;;;;;;;5016830;28;19914;-81
2021/11/25 00:39:37;;;;;;;;;;;;;;;;;;5021560;28;20369;-81
2021/11/25 00:42:03;;;;;;;;;;;;;;;;;;5014226;28;19913;-81
2021/11/25 00:44:29;;;;;;;;;;;;;;;;;;5022345;28;20277;-81
2021/11/25 00:46:55;;;;;;;;;;;;;;;;;;5007064;28;19913;-81
2021/11/25 00:49:20;;;;;;;;;;;;;;;;;;5006215;28;20399;-81
2021/11/25 00:51:46;;;;;;;;;;;;;;;;;;5012512;28;19917;-81
2021/11/25 00:54:12;;;;;;;;;;;;;;;;;;5022088;28;19920;-81
2021/11/25 00:56:38;;;;;;;;;;;;;;;;;;5012463;28;20671;-81
2021/11/25 00:59:04;;;;;;;;;;;;;;;;;;5014506;28;19914;-81
2021/11/25 01:01:30;;;;;;;;;;;;;;;;;;5012761;28;20101;-81
2021/11/25 01:03:56;;;;;;;;;;;;;;;;;;5008466;28;20354;-81
2021/11/25 01:06:22;;;;;;;;;;;;;;;;;;5019215;28;20004;-81
2021/11/25 01:08:47;;;;;;;;;;;;;;;;;;5024391;28;20270;-80
2021/11/25 01:11:13;;;;;;;;;;;;;;;;;;5027533;28;19917;-81
2021/11/25 01:13:41;;;;;;;;;;;;;;;;;;5010621;28;19925;-81
2021/11/25 01:16:07;;;;;;;;;;;;;;;;;;5019932;28;20023;-81
2021/11/25 01:18:33;;;;;;;;;;;;;;;;;;5024068;28;20007;-81
2021/11/25 01:20:59;;;;;;;;;;;;;;;;;;5026896;28;19991;-81
2021/11/25 01:23:24;;;;;;;;;;;;;;;;;;5009721;28;19952;-82
2021/11/25 01:25:52;;;;;;;;;;;;;;;;;;5023602;28;20256;-81
2021/11/25 01:28:17;;;;;;;;;;;;;;;;;;5011418;28;19913;-81
2021/11/25 01:30:43;;;;;;;;;;;;;;;;;;5011612;28;20440;-83
2021/11/25 01:33:09;;;;;;;;;;;;;;;;;;5010180;28;19914;-81
2021/11/25 01:35:35;;;;;;;;;;;;;;;;;;5012292;28;20016;-81
2021/11/25 01:38:01;;;;;;;;;;;;;;;;;;5016431;28;20357;-81
2021/11/25 01:40:27;;;;;;;;;;;;;;;;;;5021728;28;19918;-81
2021/11/25 01:42:53;;;;;;;;;;;;;;;;;;5020189;28;20004;-81
2021/11/25 01:45:24;;;;;;;;;;;;;;;;;;5022062;28;19913;-81
2021/11/25 01:47:49;;;;;;;;;;;;;;;;;;5014717;28;19913;-81
2021/11/25 01:50:15;;;;;;;;;;;;;;;;;;5012921;28;19963;-81
2021/11/25 01:52:41;;;;;;;;;;;;;;;;;;5012009;28;20353;-81
2021/11/25 01:55:07;;;;;;;;;;;;;;;;;;5012862;28;20179;-81
2021/11/25 01:57:33;;;;;;;;;;;;;;;;;;5011613;28;20291;-81
2021/11/25 01:59:59;;;;;;;;;;;;;;;;;;5017218;28;19924;-81
2021/11/25 02:02:25;;;;;;;;;;;;;;;;;;5017378;28;20284;-81
2021/11/25 02:04:51;;;;;;;;;;;;;;;;;;5017387;28;19928;-81
2021/11/25 02:07:17;;;;;;;;;;;;;;;;;;5012290;28;20412;-81
2021/11/25 02:09:43;;;;;;;;;;;;;;;;;;5026738;28;19917;-81
2021/11/25 02:12:09;;;;;;;;;;;;;;;;;;5022095;28;19913;-81
2021/11/25 02:14:35;;;;;;;;;;;;;;;;;;5008681;28;20003;-81
2021/11/25 02:17:01;;;;;;;;;;;;;;;;;;5012657;28;19957;-81
2021/11/25 02:19:27;;;;;;;;;;;;;;;;;;5022132;28;19914;-81
2021/11/25 02:21:53;;;;;;;;;;;;;;;;;;5027146;28;20370;-82
2021/11/25 02:24:19;;;;;;;;;;;;;;;;;;5013872;28;19910;-81
2021/11/25 02:26:45;;;;;;;;;;;;;;;;;;5024138;28;19921;-81
2021/11/25 02:29:11;;;;;;;;;;;;;;;;;;5016190;28;19913;-81
2021/11/25 02:31:37;;;;;;;;;;;;;;;;;;5008467;28;20340;-81
2021/11/25 02:34:03;;;;;;;;;;;;;;;;;;5016190;28;19963;-81
2021/11/25 02:36:29;;;;;;;;;;;;;;;;;;5008326;28;20367;-81
2021/11/25 02:38:56;;;;;;;;;;;;;;;;;;5008369;28;20283;-82
2021/11/25 02:41:22;;;;;;;;;;;;;;;;;;5020495;28;19918;-81
2021/11/25 02:43:50;;;;;;;;;;;;;;;;;;5015139;28;20765;-81
2021/11/25 02:46:16;;;;;;;;;;;;;;;;;;5020020;28;19921;-81
2021/11/25 02:48:42;;;;;;;;;;;;;;;;;;5023026;28;20408;-82
2021/11/25 02:51:08;;;;;;;;;;;;;;;;;;5008110;28;19964;-81
2021/11/25 02:53:34;;;;;;;;;;;;;;;;;;5009549;28;19917;-81
2021/11/25 02:56:00;;;;;;;;;;;;;;;;;;5024946;28;19949;-81
2021/11/25 02:58:26;;;;;;;;;;;;;;;;;;5024214;28;19917;-81
2021/11/25 03:00:51;;;;;;;;;;;;;;;;;;5013217;28;19917;-81
2021/11/25 03:03:17;;;;;;;;;;;;;;;;;;5009133;28;19913;-81
2021/11/25 03:05:43;;;;;;;;;;;;;;;;;;5008324;28;20385;-80
2021/11/25 03:08:09;;;;;;;;;;;;;;;;;;5007901;28;19910;-80
2021/11/25 03:10:35;;;;;;;;;;;;;;;;;;5006998;28;19917;-80
2021/11/25 03:13:01;;;;;;;;;;;;;;;;;;5009560;28;19932;-82
2021/11/25 03:15:27;;;;;;;;;;;;;;;;;;5014834;28;19928;-81
2021/11/25 03:17:53;;;;;;;;;;;;;;;;;;5012823;28;20396;-81
2021/11/25 03:20:21;;;;;;;;;;;;;;;;;;5009539;28;19917;-81
2021/11/25 03:22:47;;;;;;;;;;;;;;;;;;5007387;28;19914;-81
2021/11/25 03:25:13;;;;;;;;;;;;;;;;;;5020285;28;20434;-81
2021/11/25 03:27:39;;;;;;;;;;;;;;;;;;5007913;28;19914;-81
2021/11/25 03:30:05;;;;;;;;;;;;;;;;;;5007066;28;19952;-81
2021/11/25 03:32:31;;;;;;;;;;;;;;;;;;5007902;28;19921;-82
2021/11/25 03:34:56;;;;;;;;;;;;;;;;;;5011966;28;19917;-81
2021/11/25 03:37:22;;;;;;;;;;;;;;;;;;5025497;28;19956;-81
2021/11/25 03:39:48;;;;;;;;;;;;;;;;;;5025416;28;20206;-80
2021/11/25 03:42:14;;;;;;;;;;;;;;;;;;5026199;28;19913;-80
2021/11/25 03:44:43;;;;;;;;;;;;;;;;;;5016384;28;20248;-81
2021/11/25 03:47:09;;;;;;;;;;;;;;;;;;5015465;28;19913;-81
2021/11/25 03:49:35;;;;;;;;;;;;;;;;;;5023414;28;20281;-81
2021/11/25 03:52:01;;;;;;;;;;;;;;;;;;5006946;28;19909;-81
2021/11/25 03:54:27;;;;;;;;;;;;;;;;;;5015202;28;20353;-82
2021/11/25 03:56:52;;;;;;;;;;;;;;;;;;5026851;28;20362;-81
2021/11/25 03:59:18;;;;;;;;;;;;;;;;;;5024614;28;20218;-81
2021/11/25 04:01:44;;;;;;;;;;;;;;;;;;5013496;28;19913;-81
2021/11/25 04:04:10;;;;;;;;;;;;;;;;;;5007508;28;20182;-81
2021/11/25 04:06:36;;;;;;;;;;;;;;;;;;5016151;28;19913;-80
2021/11/25 04:09:02;;;;;;;;;;;;;;;;;;5014031;28;19913;-81
2021/11/25 04:11:28;;;;;;;;;;;;;;;;;;5006106;28;19918;-81
2021/11/25 04:13:54;;;;;;;;;;;;;;;;;;5005300;28;20212;-81
2021/11/25 04:16:20;;;;;;;;;;;;;;;;;;5007716;28;20108;-81
2021/11/25 04:18:45;;;;;;;;;;;;;;;;;;5013072;28;19918;-81
2021/11/25 04:21:11;;;;;;;;;;;;;;;;;;5005522;28;19918;-80
2021/11/25 04:23:37;;;;;;;;;;;;;;;;;;5006870;28;19924;-81
2021/11/25 04:26:03;;;;;;;;;;;;;;;;;;5014990;28;19952;-81
2021/11/25 04:28:30;;;;;;;;;;;;;;;;;;5014878;28;19914;-80
2021/11/25 04:36:25;;;;;;;;;;;;;;;;;;5008040;28;20187;-80
2021/11/25 04:38:51;;;;;;;;;;;;;;;;;;5014719;28;19913;-80
2021/11/25 04:41:17;;;;;;;;;;;;;;;;;;5014112;28;20016;-80
2021/11/25 04:43:42;;;;;;;;;;;;;;;;;;5019055;28;20370;-80
2021/11/25 04:46:08;;;;;;;;;;;;;;;;;;5012163;28;19917;-80
2021/11/25 04:48:35;;;;;;;;;;;;;;;;;;5020479;28;20831;-80
2021/11/25 04:51:01;;;;;;;;;;;;;;;;;;5006860;28;19918;-79
2021/11/25 04:53:27;;;;;;;;;;;;;;;;;;5016550;28;19972;-80
2021/11/25 04:55:53;;;;;;;;;;;;;;;;;;5012714;28;20009;-81
2021/11/25 04:58:19;;;;;;;;;;;;;;;;;;5013982;28;19913;-81
2021/11/25 05:00:45;;;;;;;;;;;;;;;;;;5013556;28;19969;-80
2021/11/25 05:03:10;;;;;;;;;;;;;;;;;;5012817;28;20405;-80
2021/11/25 05:05:36;;;;;;;;;;;;;;;;;;5018211;28;19921;-82
2021/11/25 05:08:02;;;;;;;;;;;;;;;;;;5016577;28;19921;-81
2021/11/25 05:10:28;;;;;;;;;;;;;;;;;;5018446;28;19920;-80
2021/11/25 05:12:54;;;;;;;;;;;;;;;;;;5014596;28;19967;-80
2021/11/25 05:15:20;;;;;;;;;;;;;;;;;;5015637;28;20366;-84
2021/11/25 05:17:46;;;;;;;;;;;;;;;;;;5015964;28;19924;-81
2021/11/25 05:20:12;;;;;;;;;;;;;;;;;;5010987;28;19972;-81
2021/11/25 05:22:38;;;;;;;;;;;;;;;;;;5014772;28;19914;-80
2021/11/25 05:25:04;;;;;;;;;;;;;;;;;;5017278;28;19924;-80
2021/11/25 05:27:30;;;;;;;;;;;;;;;;;;5006833;28;19918;-82
2021/11/25 05:29:55;;;;;;;;;;;;;;;;;;5007886;28;19921;-80
2021/11/25 05:32:21;;;;;;;;;;;;;;;;;;5017609;28;20169;-81
2021/11/25 05:34:48;;;;;;;;;;;;;;;;;;5016092;28;20327;-80
2021/11/25 05:37:14;;;;;;;;;;;;;;;;;;5013031;28;19921;-80
2021/11/25 05:39:40;;;;;;;;;;;;;;;;;;5010965;28;20046;-80
2021/11/25 05:42:06;;;;;;;;;;;;;;;;;;5008754;28;19925;-79
2021/11/25 05:44:32;;;;;;;;;;;;;;;;;;5007529;28;20318;-80
2021/11/25 05:46:58;;;;;;;;;;;;;;;;;;5021046;28;19924;-80
2021/11/25 05:49:24;;;;;;;;;;;;;;;;;;5010800;28;20270;-81
2021/11/25 05:51:49;;;;;;;;;;;;;;;;;;5012921;28;19913;-80
2021/11/25 05:54:15;;;;;;;;;;;;;;;;;;5014455;28;20123;-80
2021/11/25 05:56:41;;;;;;;;;;;;;;;;;;5020925;28;19967;-80
2021/11/25 05:59:07;;;;;;;;;;;;;;;;;;5019955;28;19946;-80
2021/11/25 06:01:33;;;;;;;;;;;;;;;;;;5018481;28;19917;-80
2021/11/25 06:03:59;;;;;;;;;;;;;;;;;;5018904;28;20008;-81
2021/11/25 06:06:25;;;;;;;;;;;;;;;;;;5025808;28;19918;-81
2021/11/25 06:08:51;;;;;;;;;;;;;;;;;;5015794;28;19917;-80
2021/11/25 06:11:17;;;;;;;;;;;;;;;;;;5014478;28;20370;-80
2021/11/25 06:13:43;;;;;;;;;;;;;;;;;;5009126;28;20389;-80
2021/11/25 06:16:09;;;;;;;;;;;;;;;;;;5011661;28;19952;-80
2021/11/25 06:18:34;;;;;;;;;;;;;;;;;;5016470;28;19921;-82
2021/11/25 06:21:00;;;;;;;;;;;;;;;;;;5017264;28;19926;-79
2021/11/25 06:23:26;;;;;;;;;;;;;;;;;;5018997;28;20056;-79
2021/11/25 06:25:52;;;;;;;;;;;;;;;;;;5018994;28;19913;-80
2021/11/25 06:28:18;;;;;;;;;;;;;;;;;;5015129;28;19901;-80
2021/11/25 06:30:44;;;;;;;;;;;;;;;;;;5015252;28;20277;-80
2021/11/25 06:33:10;;;;;;;;;;;;;;;;;;5018188;28;20388;-80
2021/11/25 06:35:36;;;;;;;;;;;;;;;;;;5016203;28;19923;-80
2021/11/25 06:38:02;;;;;;;;;;;;;;;;;;5017283;28;20456;-80
2021/11/25 06:40:27;;;;;;;;;;;;;;;;;;5023460;28;20026;-80
2021/11/25 06:42:53;;;;;;;;;;;;;;;;;;5020946;28;19920;-79
2021/11/25 06:45:19;;;;;;;;;;;;;;;;;;5013173;28;19919;-80
2021/11/25 06:47:47;;;;;;;;;;;;;;;;;;5016110;28;20340;-80
2021/11/25 06:50:13;;;;;;;;;;;;;;;;;;5018698;28;19921;-79
2021/11/25 06:52:39;;;;;;;;;;;;;;;;;;5025974;28;19943;-79
2021/11/25 06:55:05;;;;;;;;;;;;;;;;;;5012137;28;19982;-79
2021/11/25 06:57:30;;;;;;;;;;;;;;;;;;5019297;28;19913;-80
2021/11/25 06:59:56;;;;;;;;;;;;;;;;;;5018994;28;19921;-80
2021/11/25 07:02:22;;;;;;;;;;;;;;;;;;5020296;28;20392;-80
2021/11/25 07:04:48;;;;;;;;;;;;;;;;;;5017053;28;19928;-79
2021/11/25 07:07:14;;;;;;;;;;;;;;;;;;5016936;28;20338;-81
2021/11/25 07:09:40;;;;;;;;;;;;;;;;;;5015625;28;19917;-80
2021/11/25 07:12:06;;;;;;;;;;;;;;;;;;5024154;28;19917;-81
2021/11/25 07:14:32;;;;;;;;;;;;;;;;;;5009060;28;19917;-80
2021/11/25 07:16:58;;;;;;;;;;;;;;;;;;5011672;28;19917;-79
2021/11/25 07:19:23;;;;;;;;;;;;;;;;;;5013056;28;19925;-80
2021/11/25 07:21:49;;;;;;;;;;;;;;;;;;5020816;28;20333;-79
2021/11/25 07:24:15;;;;;;;;;;;;;;;;;;5009821;28;20445;-80
2021/11/25 07:26:41;;;;;;;;;;;;;;;;;;5015172;28;19913;-80
2021/11/25 07:29:07;;;;;;;;;;;;;;;;;;5013163;28;20374;-79
2021/11/25 07:31:33;;;;;;;;;;;;;;;;;;5011649;28;19909;-81
2021/11/25 07:33:59;;;;;;;;;;;;;;;;;;5008093;28;19987;-80
2021/11/25 07:36:25;;;;;;;;;;;;;;;;;;5014151;28;19918;-81
2021/11/25 07:38:51;;;;;;;;;;;;;;;;;;5010499;28;19917;-81
2021/11/25 07:41:16;;;;;;;;;;;;;;;;;;5013523;28;19953;-82
2021/11/25 07:43:42;;;;;;;;;;;;;;;;;;5013758;28;19922;-81
2021/11/25 07:46:08;;;;;;;;;;;;;;;;;;5020797;28;19909;-82
2021/11/25 07:48:34;;;;;;;;;;;;;;;;;;5014594;28;19937;-82
2021/11/25 07:51:00;;;;;;;;;;;;;;;;;;5020992;28;19913;-81
2021/11/25 07:53:27;;;;;;;;;;;;;;;;;;5025999;28;19920;-82
2021/11/25 07:55:53;;;;;;;;;;;;;;;;;;5018291;28;19917;-81
2021/11/25 07:58:20;;;;;;;;;;;;;;;;;;5021962;28;19914;-82
2021/11/25 08:00:46;;;;;;;;;;;;;;;;;;5017826;28;20271;-81
2021/11/25 08:03:12;;;;;;;;;;;;;;;;;;5013287;28;19924;-82
2021/11/25 08:05:38;;;;;;;;;;;;;;;;;;5008282;28;20000;-82
2021/11/25 08:08:03;;;;;;;;;;;;;;;;;;5012743;28;20004;-81
2021/11/25 08:10:29;;;;;;;;;;;;;;;;;;5019438;28;20369;-82
2021/11/25 08:12:58;;;;;;;;;;;;;;;;;;5010365;28;20307;-82
2021/11/25 08:15:24;;;;;;;;;;;;;;;;;;5007911;28;20206;-81
2021/11/25 08:17:50;;;;;;;;;;;;;;;;;;5024348;28;19967;-81
2021/11/25 08:20:16;;;;;;;;;;;;;;;;;;5026451;28;19921;-81
2021/11/25 08:22:42;;;;;;;;;;;;;;;;;;5016359;28;19914;-81
2021/11/25 08:25:08;;;;;;;;;;;;;;;;;;5012471;28;19913;-81
2021/11/25 08:27:34;;;;;;;;;;;;;;;;;;5028019;28;20000;-82
2021/11/25 08:30:00;;;;;;;;;;;;;;;;;;5040588;28;19909;-82
2021/11/25 08:35:17;;;;;;;;;;;;;;;;;;5014978;28;20769;-81
2021/11/25 08:37:44;;;;;;;;;;;;;;;;;;5031055;28;19910;-82
2021/11/25 08:40:10;;;;;;;;;;;;;;;;;;5028079;28;19914;-82
2021/11/25 08:42:38;;;;;;;;;;;;;;;;;;5011883;28;19909;-81
2021/11/25 08:45:04;;;;;;;;;;;;;;;;;;5022563;28;19923;-82
2021/11/25 08:47:30;;;;;;;;;;;;;;;;;;5028196;28;19949;-82
2021/11/25 08:49:56;;;;;;;;;;;;;;;;;;5021072;28;19960;-82
2021/11/25 08:52:23;;;;;;;;;;;;;;;;;;5012456;28;19913;-82
2021/11/25 08:54:50;;;;;;;;;;;;;;;;;;5011264;28;20020;-81
2021/11/25 08:57:16;;;;;;;;;;;;;;;;;;5023505;28;19949;-82
2021/11/25 08:59:42;;;;;;;;;;;;;;;;;;5036285;28;20742;-81
2021/11/25 09:02:08;;;;;;;;;;;;;;;;;;5038347;28;19913;-81
2021/11/25 09:04:36;;;;;;;;;;;;;;;;;;5037020;28;19934;-81
2021/11/25 09:07:03;;;;;;;;;;;;;;;;;;5016276;28;19909;-81
2021/11/25 09:09:29;;;;;;;;;;;;;;;;;;5013871;28;20416;-81
2021/11/25 09:11:58;;;;;;;;;;;;;;;;;;5026478;28;20011;-80
2021/11/25 09:14:25;;;;;;;;;;;;;;;;;;5031247;28;19909;-84
2021/11/25 09:16:52;;;;;;;;;;;;;;;;;;5015342;28;20044;-83
2021/11/25 09:19:20;;;;;;;;;;;;;;;;;;5041345;28;19917;-82
2021/11/25 09:21:46;;;;;;;;;;;;;;;;;;5011521;28;19928;-81
2021/11/25 09:24:13;;;;;;;;;;;;;;;;;;5022867;28;20300;-81
2021/11/25 09:26:39;;;;;;;;;;;;;;;;;;5025482;28;20000;-81
2021/11/25 09:29:05;;;;;;;;;;;;;;;;;;5010026;28;19917;-81
2021/11/25 09:31:31;;;;;;;;;;;;;;;;;;5022974;28;20663;-81
2021/11/25 09:33:57;;;;;;;;;;;;;;;;;;5037390;28;19919;-81
2021/11/25 09:36:23;;;;;;;;;;;;;;;;;;5037599;28;20000;-81
2021/11/25 09:38:49;;;;;;;;;;;;;;;;;;5040609;28;19909;-80
2021/11/25 09:41:14;;;;;;;;;;;;;;;;;;5044906;28;19916;-80
2021/11/25 09:43:40;;;;;;;;;;;;;;;;;;5039575;28;19917;-81
2021/11/25 09:46:06;;;;;;;;;;;;;;;;;;5042546;28;19920;-80
2021/11/25 09:48:32;;;;;;;;;;;;;;;;;;5038013;28;19913;-81
2021/11/25 09:50:58;;;;;;;;;;;;;;;;;;5045427;28;19963;-80
2021/11/25 09:53:24;;;;;;;;;;;;;;;;;;5037572;28;19917;-81
2021/11/25 09:55:50;;;;;;;;;;;;;;;;;;5042371;28;20327;-81
2021/11/25 09:58:16;;;;;;;;;;;;;;;;;;5039539;28;19925;-80
2021/11/25 10:00:45;;;;;;;;;;;;;;;;;;5037433;28;20019;-82
2021/11/25 10:03:15;;;;;;;;;;;;;;;;;;5041738;28;19909;-81
2021/11/25 10:05:41;;;;;;;;;;;;;;;;;;5039992;28;19920;-81
2021/11/25 10:08:07;;;;;;;;;;;;;;;;;;5049145;28;20086;-80
2021/11/25 10:10:34;;;;;;;;;;;;;;;;;;5047581;28;19913;-81
2021/11/25 10:13:02;;;;;;;;;;;;;;;;;;5046956;28;20661;-81
2021/11/25 10:15:31;;;;;;;;;;;;;;;;;;5037501;28;19917;-81
2021/11/25 10:18:00;;;;;;;;;;;;;;;;;;5041607;28;19948;-80
2021/11/25 10:20:26;;;;;;;;;;;;;;;;;;5042740;28;19917;-80
2021/11/25 10:22:57;;;;;;;;;;;;;;;;;;5037525;28;20047;-81
2021/11/25 10:25:23;;;;;;;;;;;;;;;;;;5042625;28;19916;-82
2021/11/25 10:27:49;;;;;;;;;;;;;;;;;;5038799;28;19932;-81
2021/11/25 10:30:16;;;;;;;;;;;;;;;;;;5039500;28;19920;-81
2021/11/25 10:32:42;;;;;;;;;;;;;;;;;;5034462;28;19960;-81
2021/11/25 10:35:11;;;;;;;;;;;;;;;;;;5042042;28;19955;-81
2021/11/25 10:37:59;;;;;;;;;;;;;;;;;;5039240;28;19952;-82
2021/11/25 10:40:25;;;;;;;;;;;;;;;;;;5041032;28;20763;-81
2021/11/25 10:42:50;;;;;;;;;;;;;;;;;;5040481;28;19909;-81
2021/11/25 10:45:16;;;;;;;;;;;;;;;;;;5041702;28;19916;-81
2021/11/25 10:47:43;;;;;;;;;;;;;;;;;;5040471;28;20332;-82
2021/11/25 10:50:09;;;;;;;;;;;;;;;;;;5038934;28;20706;-81
2021/11/25 10:52:35;;;;;;;;;;;;;;;;;;5038825;28;19947;-82
2021/11/25 10:55:01;;;;;;;;;;;;;;;;;;5044951;28;19986;-81
2021/11/25 10:57:32;;;;;;;;;;;;;;;;;;5041027;28;20417;-81
2021/11/25 10:59:57;;;;;;;;;;;;;;;;;;5041633;28;20331;-82
2021/11/25 11:02:23;;;;;;;;;;;;;;;;;;5042052;28;19962;-82
2021/11/25 11:04:49;;;;;;;;;;;;;;;;;;5035451;28;19983;-81
2021/11/25 11:07:15;;;;;;;;;;;;;;;;;;5042356;28;20021;-82
2021/11/25 11:09:41;;;;;;;;;;;;;;;;;;5038038;28;19968;-82
2021/11/25 11:12:07;;;;;;;;;;;;;;;;;;5040586;28;19909;-82
2021/11/25 11:14:41;;;;;;;;;;;;;;;;;;5041513;28;19948;-83
2021/11/25 11:17:15;;;;;;;;;;;;;;;;;;5041624;28;19913;-82
2021/11/25 11:19:42;;;;;;;;;;;;;;;;;;5045138;28;20777;-83
2021/11/25 11:22:08;;;;;;;;;;;;;;;;;;5041910;28;19959;-82
2021/11/25 11:24:35;;;;;;;;;;;;;;;;;;5035172;28;20784;-82
2021/11/25 11:27:09;;;;;;;;;;;;;;;;;;5032213;28;19924;-82
2021/11/25 11:29:37;;;;;;;;;;;;;;;;;;5032840;28;19917;-83
2021/11/25 11:32:04;;;;;;;;;;;;;;;;;;5031910;28;19920;-82
2021/11/25 11:34:30;;;;;;;;;;;;;;;;;;5039756;28;20353;-81
2021/11/25 11:36:56;;;;;;;;;;;;;;;;;;5039632;28;19913;-80
2021/11/25 11:39:21;;;;;;;;;;;;;;;;;;5035794;28;20003;-83
2021/11/25 11:41:48;;;;;;;;;;;;;;;;;;5041187;28;19954;-83
2021/11/25 11:44:13;;;;;;;;;;;;;;;;;;5037701;28;19909;-83
2021/11/25 11:46:39;;;;;;;;;;;;;;;;;;5036666;28;19913;-83
2021/11/25 11:49:05;;;;;;;;;;;;;;;;;;5042777;28;19924;-82
2021/11/25 11:51:34;;;;;;;;;;;;;;;;;;5035079;28;19920;-83
2021/11/25 11:54:01;;;;;;;;;;;;;;;;;;5038369;28;19996;-82
2021/11/25 11:56:27;;;;;;;;;;;;;;;;;;5035088;28;21443;-83
2021/11/25 11:58:54;;;;;;;;;;;;;;;;;;5028140;28;19936;-83
2021/11/25 12:01:20;;;;;;;;;;;;;;;;;;5039703;28;19947;-84
2021/11/25 12:03:46;;;;;;;;;;;;;;;;;;5039992;28;19913;-81
2021/11/25 12:06:12;;;;;;;;;;;;;;;;;;5039604;28;19971;-83
2021/11/25 12:08:38;;;;;;;;;;;;;;;;;;5036601;28;20479;-84
2021/11/25 12:11:07;;;;;;;;;;;;;;;;;;5035099;28;19916;-85
2021/11/25 12:13:33;;;;;;;;;;;;;;;;;;5035598;28;19913;-84
2021/11/25 12:15:59;;;;;;;;;;;;;;;;;;5040084;28;20671;-85
2021/11/25 12:18:25;;;;;;;;;;;;;;;;;;5036632;28;19935;-84
2021/11/25 12:20:51;;;;;;;;;;;;;;;;;;5036695;28;19917;-84
2021/11/25 12:23:17;;;;;;;;;;;;;;;;;;5033995;28;19916;-84
2021/11/25 12:25:45;;;;;;;;;;;;;;;;;;5038685;28;19909;-85
2021/11/25 12:28:11;;;;;;;;;;;;;;;;;;5035409;28;19913;-84
2021/11/25 12:30:53;;;;;;;;;;;;;;;;;;5041333;28;19917;-85
2021/11/25 12:33:19;;;;;;;;;;;;;;;;;;5033126;28;20836;-84
2021/11/25 12:35:45;;;;;;;;;;;;;;;;;;5039644;28;19951;-84
2021/11/25 12:38:12;;;;;;;;;;;;;;;;;;5036067;28;19920;-84
2021/11/25 12:40:39;;;;;;;;;;;;;;;;;;5037814;28;19917;-84
2021/11/25 12:43:05;;;;;;;;;;;;;;;;;;5037041;28;19921;-84
2021/11/25 12:45:31;;;;;;;;;;;;;;;;;;5039101;28;19935;-85
2021/11/25 12:47:57;;;;;;;;;;;;;;;;;;5039575;28;19967;-88
2021/11/25 12:50:22;;;;;;;;;;;;;;;;;;5034976;28;19916;-86
2021/11/25 12:52:48;;;;;;;;;;;;;;;;;;5025364;28;20405;-85
2021/11/25 12:55:17;;;;;;;;;;;;;;;;;;5040820;28;19912;-85
2021/11/25 12:57:46;;;;;;;;;;;;;;;;;;5039302;28;19909;-85
2021/11/25 13:00:12;;;;;;;;;;;;;;;;;;5038605;28;19992;-85
2021/11/25 13:02:38;;;;;;;;;;;;;;;;;;5042391;28;19917;-85
2021/11/25 13:05:04;;;;;;;;;;;;;;;;;;5038267;28;19932;-84
2021/11/25 13:07:30;;;;;;;;;;;;;;;;;;5039360;28;19959;-86
2021/11/25 13:09:56;;;;;;;;;;;;;;;;;;5034633;28;20381;-84
2021/11/25 13:12:22;;;;;;;;;;;;;;;;;;5042284;28;20366;-83
2021/11/25 13:14:48;;;;;;;;;;;;;;;;;;5048410;28;19910;-86
2021/11/25 13:17:15;;;;;;;;;;;;;;;;;;5043508;28;19928;-87
2021/11/25 13:19:44;;;;;;;;;;;;;;;;;;5037018;28;19924;-87
2021/11/25 13:22:10;;;;;;;;;;;;;;;;;;5033234;28;20429;-84
2021/11/25 13:24:42;;;;;;;;;;;;;;;;;;5036846;28;19917;-86
2021/11/25 13:27:08;;;;;;;;;;;;;;;;;;5029268;28;20623;-86
2021/11/25 13:29:34;;;;;;;;;;;;;;;;;;5029177;28;19923;-85
2021/11/25 13:32:00;;;;;;;;;;;;;;;;;;5041398;28;19966;-85
2021/11/25 13:34:26;;;;;;;;;;;;;;;;;;5044385;28;20491;-87
2021/11/25 13:36:52;;;;;;;;;;;;;;;;;;5049820;28;19921;-83
2021/11/25 13:39:18;;;;;;;;;;;;;;;;;;5043924;28;20365;-85
2021/11/25 13:41:44;;;;;;;;;;;;;;;;;;5045735;28;19974;-85
2021/11/25 13:44:10;;;;;;;;;;;;;;;;;;5041022;28;19913;-85
2021/11/25 13:46:36;;;;;;;;;;;;;;;;;;5046066;28;20646;-87
2021/11/25 13:49:02;;;;;;;;;;;;;;;;;;5041302;28;20212;-86
2021/11/25 13:51:27;;;;;;;;;;;;;;;;;;5042827;28;19916;-86
2021/11/25 13:53:53;;;;;;;;;;;;;;;;;;5041533;28;19955;-86
2021/11/25 13:56:19;;;;;;;;;;;;;;;;;;5046292;28;19916;-86
2021/11/25 13:58:45;;;;;;;;;;;;;;;;;;5044811;28;19921;-85
2021/11/25 14:01:11;;;;;;;;;;;;;;;;;;5042998;28;19917;-81
2021/11/25 14:03:37;;;;;;;;;;;;;;;;;;5040449;28;20353;-83
2021/11/25 14:06:05;;;;;;;;;;;;;;;;;;5035704;28;19963;-88
2021/11/25 14:08:31;;;;;;;;;;;;;;;;;;5046979;28;19909;-85
2021/11/25 14:10:58;;;;;;;;;;;;;;;;;;5039104;28;19917;-83
2021/11/25 14:13:24;;;;;;;;;;;;;;;;;;5047028;28;19910;-85
2021/11/25 14:15:50;;;;;;;;;;;;;;;;;;5041267;28;20468;-85
2021/11/25 14:18:16;;;;;;;;;;;;;;;;;;5036889;28;19922;-86
2021/11/25 14:20:43;;;;;;;;;;;;;;;;;;5044245;28;20039;-86
2021/11/25 14:23:09;;;;;;;;;;;;;;;;;;5046317;28;19935;-85
2021/11/25 14:25:37;;;;;;;;;;;;;;;;;;5042663;28;19935;-83
2021/11/25 14:30:48;;;;;;;;;;;;;;;;;;5035735;28;19963;-85
2021/11/25 14:33:13;;;;;;;;;;;;;;;;;;5036227;28;19949;-82
2021/11/25 14:38:05;;;;;;;;;;;;;;;;;;5041316;28;20826;-85
2021/11/25 14:40:31;;;;;;;;;;;;;;;;;;5044492;28;20007;-85
2021/11/25 14:42:57;;;;;;;;;;;;;;;;;;5043074;28;19917;-86
2021/11/25 14:45:23;;;;;;;;;;;;;;;;;;5044751;28;19919;-85
2021/11/25 14:47:49;;;;;;;;;;;;;;;;;;5046773;28;20003;-85
2021/11/25 14:50:15;;;;;;;;;;;;;;;;;;5040273;28;19986;-85
2021/11/25 14:52:41;;;;;;;;;;;;;;;;;;5044751;28;19916;-85
2021/11/25 14:55:07;;;;;;;;;;;;;;;;;;5042874;28;19912;-85
2021/11/25 14:57:32;;;;;;;;;;;;;;;;;;5042460;28;19953;-85
2021/11/25 14:59:58;;;;;;;;;;;;;;;;;;5040144;28;20639;-84
2021/11/25 15:02:24;;;;;;;;;;;;;;;;;;5040688;28;19920;-85
2021/11/25 15:04:50;;;;;;;;;;;;;;;;;;5034717;28;19970;-86
2021/11/25 15:07:16;;;;;;;;;;;;;;;;;;5032579;28;20320;-85
2021/11/25 15:09:42;;;;;;;;;;;;;;;;;;5033361;28;19917;-85
2021/11/25 15:12:08;;;;;;;;;;;;;;;;;;5033158;28;20202;-85
2021/11/25 15:14:38;;;;;;;;;;;;;;;;;;5035772;28;19975;-85
2021/11/25 15:17:05;;;;;;;;;;;;;;;;;;5033526;28;20035;-85
2021/11/25 15:19:31;;;;;;;;;;;;;;;;;;5031501;28;19952;-85
2021/11/25 15:21:58;;;;;;;;;;;;;;;;;;5031153;28;20044;-85
2021/11/25 15:24:24;;;;;;;;;;;;;;;;;;5035112;28;19920;-88
2021/11/25 15:26:50;;;;;;;;;;;;;;;;;;5043652;28;19917;-86
2021/11/25 15:29:17;;;;;;;;;;;;;;;;;;5039576;28;19913;-86
2021/11/25 15:31:43;;;;;;;;;;;;;;;;;;5038681;28;19909;-86
2021/11/25 15:34:09;;;;;;;;;;;;;;;;;;5041841;28;20373;-86
2021/11/25 15:36:35;;;;;;;;;;;;;;;;;;5043137;28;19916;-86
2021/11/25 15:39:01;;;;;;;;;;;;;;;;;;5038162;28;19913;-86
2021/11/25 15:41:27;;;;;;;;;;;;;;;;;;5044658;28;20304;-86
2021/11/25 15:43:54;;;;;;;;;;;;;;;;;;5039376;28;20004;-85
2021/11/25 15:46:21;;;;;;;;;;;;;;;;;;5041732;28;19908;-86
2021/11/25 15:48:49;;;;;;;;;;;;;;;;;;5043398;28;20670;-86
2021/11/25 15:51:15;;;;;;;;;;;;;;;;;;5043156;28;19909;-86
2021/11/25 15:53:42;;;;;;;;;;;;;;;;;;5039882;28;19913;-86
2021/11/25 15:56:08;;;;;;;;;;;;;;;;;;5035972;28;19909;-86
2021/11/25 15:58:34;;;;;;;;;;;;;;;;;;5031205;28;19991;-86
2021/11/25 16:01:00;;;;;;;;;;;;;;;;;;5022745;28;19920;-86
2021/11/25 16:03:26;;;;;;;;;;;;;;;;;;5023290;28;20020;-85
2021/11/25 16:05:51;;;;;;;;;;;;;;;;;;5022411;28;20541;-86
2021/11/25 16:08:19;;;;;;;;;;;;;;;;;;5013057;28;19917;-84
2021/11/25 16:10:45;;;;;;;;;;;;;;;;;;5022899;28;19999;-84
2021/11/25 16:13:13;;;;;;;;;;;;;;;;;;5028963;28;19999;-84
2021/11/25 16:15:44;;;;;;;;;;;;;;;;;;5012957;28;19920;-83
2021/11/25 16:18:10;;;;;;;;;;;;;;;;;;5007137;28;19913;-84
2021/11/25 16:20:36;;;;;;;;;;;;;;;;;;5015298;28;19926;-83
2021/11/25 16:23:02;;;;;;;;;;;;;;;;;;5019686;28;19937;-84
2021/11/25 16:25:28;;;;;;;;;;;;;;;;;;5023658;28;20389;-84
2021/11/25 16:27:54;;;;;;;;;;;;;;;;;;5016294;28;19948;-83
2021/11/25 16:30:21;;;;;;;;;;;;;;;;;;5011863;28;19918;-83
2021/11/25 16:32:47;;;;;;;;;;;;;;;;;;5013306;28;19939;-83
2021/11/25 16:35:13;;;;;;;;;;;;;;;;;;5010764;28;19913;-83
2021/11/25 16:37:39;;;;;;;;;;;;;;;;;;5007372;28;20015;-83
2021/11/25 16:40:05;;;;;;;;;;;;;;;;;;5006120;28;20024;-83
2021/11/25 16:42:31;;;;;;;;;;;;;;;;;;5019847;28;20225;-83
2021/11/25 16:44:57;;;;;;;;;;;;;;;;;;5012852;28;20373;-83
2021/11/25 16:49:48;;;;;;;;;;;;;;;;;;5014897;28;20004;-83
2021/11/25 16:52:14;;;;;;;;;;;;;;;;;;5018216;28;19925;-83
2021/11/25 16:54:40;;;;;;;;;;;;;;;;;;5018382;28;19917;-83